Main page
METAR-TAF:

METAR-TAF

Airports :

Larestan International Airport

Lar, Iran

latitude: 27-40-26N, longitude: 054-22-53E, elevation: 792 m

Current weather observation

The report was made 41 minutes ago, at 04:00 UTC
Calm wind
Temperature 1°C
Humidity 51%
Pressure 1021 hPa
Visibility 10 km or more
no clouds below 1500 m and no cumulonimbus

METAR: OISL 210400Z 00000KT CAVOK 01/M08 Q1021

Time: 08:11 (04:41 UTC)

Forecast

The report was made 5 hours and 31 minutes ago, at 23:10 UTC
Forecast valid from 21 at 00 UTC to 22 at 06 UTC
Wind 6 kt from the West/Southwest
Visibility 10 km or more
no clouds below 1500 m and no cumulonimbus
Temporary
from 21 at 12 UTC to 21 at 18 UTC
Few clouds at a height of 3500 ft, Towering cumulus.
Scattered clouds at a height of 4000 ft
Broken clouds at a height of 10000 ft

TAF: OISL 202310Z 2100/2206 24006KT CAVOK TEMPO 2112/2118 FEW035TCU SCT040 BKN100

Weather observations and forecasts of more than 4000 airports (METAR and TAF reports).

The available stations are represented by yellow and red dots on the map.

Hover mouse over dot to see the name of the station.

Then click to see weather observations and forecasts.

To change the map : click on the green buttons with a black cross to zoom in, on the green button with a dash to zoom out, or on the green arrows for adjacent maps.


METAR-TAF: